TimeMDT,TemperatureF,Dew PointF,Humidity,Sea Level PressureIn,VisibilityMPH,Wind Direction,Wind SpeedMPH,Gust SpeedMPH,PrecipitationIn,Events,Conditions,WindDirDegrees,DateUTC
12:53 AM,30.0,24.1,79,30.15,10.0,Calm,Calm,-,N/A,,Clear,0,2013-03-31 06:53:00
1:53 AM,28.9,24.1,82,30.15,10.0,Calm,Calm,-,N/A,,Clear,0,2013-03-31 07:53:00
2:53 AM,28.0,21.9,78,30.13,10.0,Calm,Calm,-,N/A,,Clear,0,2013-03-31 08:53:00
3:53 AM,26.1,23.0,88,30.12,10.0,Calm,Calm,-,N/A,,Clear,0,2013-03-31 09:53:00
4:53 AM,26.1,23.0,88,30.12,10.0,Calm,Calm,-,N/A,,Clear,0,2013-03-31 10:53:00
5:53 AM,25.0,21.0,85,30.12,10.0,Calm,Calm,-,N/A,,Clear,0,2013-03-31 11:53:00
6:53 AM,24.1,21.0,88,30.13,10.0,Calm,Calm,-,N/A,,Clear,0,2013-03-31 12:53:00
7:53 AM,24.1,21.0,88,30.15,10.0,Calm,Calm,-,N/A,,Clear,0,2013-03-31 13:53:00
8:53 AM,30.0,26.1,85,30.17,10.0,Calm,Calm,-,N/A,,Clear,0,2013-03-31 14:53:00
9:53 AM,37.0,27.0,67,30.15,10.0,North,3.5,-,N/A,,Clear,360,2013-03-31 15:53:00
10:53 AM,44.1,24.1,45,30.13,10.0,Calm,Calm,-,N/A,,Clear,0,2013-03-31 16:53:00
11:53 AM,48.0,19.9,33,30.13,10.0,Variable,3.5,-,N/A,,Clear,0,2013-03-31 17:53:00
12:53 PM,53.1,6.1,15,30.10,10.0,NNE,5.8,-,N/A,,Clear,30,2013-03-31 18:53:00
1:53 PM,53.1,-9999,N/A,30.09,10.0,West,5.8,-,N/A,,Clear,280,2013-03-31 19:53:00
2:53 PM,55.0,21.9,28,30.06,10.0,Variable,3.5,-,N/A,,Clear,0,2013-03-31 20:53:00
3:53 PM,57.0,21.9,26,30.04,10.0,NNW,3.5,-,N/A,,Clear,330,2013-03-31 21:53:00
4:53 PM,57.9,21.0,24,30.02,10.0,West,5.8,-,N/A,,Clear,280,2013-03-31 22:53:00
5:53 PM,57.0,25.0,29,30.02,10.0,ESE,9.2,-,N/A,,Clear,120,2013-03-31 23:53:00
6:53 PM,54.0,25.0,33,30.03,10.0,East,10.4,-,N/A,,Clear,100,2013-04-01 00:53:00
7:53 PM,50.0,26.1,39,30.05,10.0,SE,9.2,-,N/A,,Clear,130,2013-04-01 01:53:00
8:53 PM,46.0,25.0,44,30.05,10.0,Calm,Calm,-,N/A,,Clear,0,2013-04-01 02:53:00
9:53 PM,44.1,26.1,49,30.04,10.0,NW,3.5,-,N/A,,Clear,320,2013-04-01 03:53:00
10:53 PM,39.0,27.0,62,30.04,10.0,Calm,Calm,-,N/A,,Clear,0,2013-04-01 04:53:00
11:53 PM,34.0,26.1,73,30.04,10.0,Calm,Calm,-,N/A,,Clear,0,2013-04-01 05:53:00